sensor_id;sensor_type;location;lat;lon;timestamp;pressure;altitude;pressure_sealevel;temperature;humidity
75312;BME280;63906;55.686;37.532;2023-02-19T00:01:36;97960.06;;;-6.37;72.41
75312;BME280;63906;55.686;37.532;2023-02-19T00:06:36;97926.78;;;-6.37;73.27
75312;BME280;63906;55.686;37.532;2023-02-19T00:11:38;97907.84;;;-6.87;72.30
75312;BME280;63906;55.686;37.532;2023-02-19T00:16:39;97937.50;;;-6.64;72.93
75312;BME280;63906;55.686;37.532;2023-02-19T00:21:39;97936.25;;;-6.48;72.25
75312;BME280;63906;55.686;37.532;2023-02-19T00:26:41;97930.91;;;-6.45;72.96
75312;BME280;63906;55.686;37.532;2023-02-19T00:31:43;97931.63;;;-6.55;72.61
75312;BME280;63906;55.686;37.532;2023-02-19T00:36:44;97924.28;;;-6.69;72.77
75312;BME280;63906;55.686;37.532;2023-02-19T00:41:44;97875.63;;;-6.90;72.79
75312;BME280;63906;55.686;37.532;2023-02-19T00:46:46;97891.19;;;-6.61;72.98
75312;BME280;63906;55.686;37.532;2023-02-19T00:51:47;97894.56;;;-6.60;73.29
75312;BME280;63906;55.686;37.532;2023-02-19T00:56:49;97879.03;;;-6.68;72.32
75312;BME280;63906;55.686;37.532;2023-02-19T01:01:49;97891.38;;;-6.32;73.75
75312;BME280;63906;55.686;37.532;2023-02-19T01:06:50;97880.22;;;-6.52;73.65
75312;BME280;63906;55.686;37.532;2023-02-19T01:11:50;97870.72;;;-6.61;73.06
75312;BME280;63906;55.686;37.532;2023-02-19T01:16:51;97864.38;;;-6.45;73.28
75312;BME280;63906;55.686;37.532;2023-02-19T01:21:51;97832.97;;;-6.68;73.63
75312;BME280;63906;55.686;37.532;2023-02-19T01:26:52;97862.69;;;-6.56;74.20
75312;BME280;63906;55.686;37.532;2023-02-19T01:31:52;97849.38;;;-6.71;72.88
75312;BME280;63906;55.686;37.532;2023-02-19T01:36:53;97857.56;;;-6.56;73.23
75312;BME280;63906;55.686;37.532;2023-02-19T01:41:53;97859.97;;;-6.55;72.88
75312;BME280;63906;55.686;37.532;2023-02-19T01:46:54;97862.28;;;-6.72;73.53
75312;BME280;63906;55.686;37.532;2023-02-19T01:52:05;97825.31;;;-6.89;73.67
75312;BME280;63906;55.686;37.532;2023-02-19T01:57:20;97859.09;;;-6.65;74.78
75312;BME280;63906;55.686;37.532;2023-02-19T02:02:23;97830.84;;;-6.63;74.90
75312;BME280;63906;55.686;37.532;2023-02-19T02:07:27;97845.91;;;-6.70;72.76
75312;BME280;63906;55.686;37.532;2023-02-19T02:12:50;97852.38;;;-6.87;73.04
75312;BME280;63906;55.686;37.532;2023-02-19T02:18:07;97848.63;;;-7.03;73.56
75312;BME280;63906;55.686;37.532;2023-02-19T02:23:34;97829.47;;;-7.09;73.91
75312;BME280;63906;55.686;37.532;2023-02-19T02:34:05;97838.09;;;-6.89;74.31
75312;BME280;63906;55.686;37.532;2023-02-19T02:39:10;97825.63;;;-6.83;74.88
75312;BME280;63906;55.686;37.532;2023-02-19T02:44:12;97803.41;;;-6.82;75.82
75312;BME280;63906;55.686;37.532;2023-02-19T02:49:20;97790.72;;;-6.84;75.28
75312;BME280;63906;55.686;37.532;2023-02-19T02:54:26;97833.84;;;-6.79;73.58
75312;BME280;63906;55.686;37.532;2023-02-19T02:59:47;97822.69;;;-6.78;73.52
75312;BME280;63906;55.686;37.532;2023-02-19T03:05:17;97820.63;;;-6.63;72.71
75312;BME280;63906;55.686;37.532;2023-02-19T03:15:45;97827.69;;;-6.46;74.40
75312;BME280;63906;55.686;37.532;2023-02-19T03:21:06;97783.31;;;-6.87;74.65
75312;BME280;63906;55.686;37.532;2023-02-19T03:26:09;97785.31;;;-6.90;75.55
75312;BME280;63906;55.686;37.532;2023-02-19T03:31:13;97792.03;;;-6.68;76.10
75312;BME280;63906;55.686;37.532;2023-02-19T03:36:14;97775.81;;;-6.79;75.68
75312;BME280;63906;55.686;37.532;2023-02-19T03:41:56;97804.59;;;-6.35;76.70
75312;BME280;63906;55.686;37.532;2023-02-19T03:47:01;97778.16;;;-6.96;75.02
75312;BME280;63906;55.686;37.532;2023-02-19T03:52:19;97807.56;;;-6.39;76.33
75312;BME280;63906;55.686;37.532;2023-02-19T04:07:52;97796.31;;;-6.48;75.32
75312;BME280;63906;55.686;37.532;2023-02-19T04:13:04;97775.78;;;-6.88;74.68
75312;BME280;63906;55.686;37.532;2023-02-19T04:18:09;97785.63;;;-6.63;74.56
75312;BME280;63906;55.686;37.532;2023-02-19T04:23:13;97771.53;;;-6.78;74.08
75312;BME280;63906;55.686;37.532;2023-02-19T04:28:16;97782.44;;;-6.76;74.26
75312;BME280;63906;55.686;37.532;2023-02-19T04:33:17;97778.91;;;-6.54;75.12
75312;BME280;63906;55.686;37.532;2023-02-19T04:38:18;97761.06;;;-6.65;74.29
75312;BME280;63906;55.686;37.532;2023-02-19T04:43:19;97777.28;;;-6.55;74.68
75312;BME280;63906;55.686;37.532;2023-02-19T04:48:19;97774.50;;;-6.52;75.42
75312;BME280;63906;55.686;37.532;2023-02-19T04:53:20;97766.16;;;-6.75;75.00
75312;BME280;63906;55.686;37.532;2023-02-19T04:58:20;97748.34;;;-6.56;75.90
75312;BME280;63906;55.686;37.532;2023-02-19T05:03:21;97771.94;;;-6.52;75.99
75312;BME280;63906;55.686;37.532;2023-02-19T05:08:22;97756.88;;;-6.45;75.58
75312;BME280;63906;55.686;37.532;2023-02-19T05:13:22;97750.59;;;-6.62;74.61
75312;BME280;63906;55.686;37.532;2023-02-19T05:18:23;97704.63;;;-7.04;75.57
75312;BME280;63906;55.686;37.532;2023-02-19T05:23:25;97739.56;;;-6.63;75.38
75312;BME280;63906;55.686;37.532;2023-02-19T05:28:26;97749.34;;;-6.37;75.22
75312;BME280;63906;55.686;37.532;2023-02-19T05:33:29;97740.22;;;-6.30;75.27
75312;BME280;63906;55.686;37.532;2023-02-19T05:38:29;97737.50;;;-6.38;73.85
75312;BME280;63906;55.686;37.532;2023-02-19T05:43:30;97709.63;;;-6.72;73.30
75312;BME280;63906;55.686;37.532;2023-02-19T05:48:31;97753.47;;;-6.06;74.71
75312;BME280;63906;55.686;37.532;2023-02-19T05:53:31;97743.09;;;-6.14;74.06
75312;BME280;63906;55.686;37.532;2023-02-19T05:58:32;97720.25;;;-6.36;73.07
75312;BME280;63906;55.686;37.532;2023-02-19T06:03:32;97714.91;;;-6.24;71.69
75312;BME280;63906;55.686;37.532;2023-02-19T06:08:33;97730.16;;;-6.03;72.97
75312;BME280;63906;55.686;37.532;2023-02-19T06:13:34;97698.72;;;-6.24;73.65
75312;BME280;63906;55.686;37.532;2023-02-19T06:18:34;97724.38;;;-6.05;74.33
75312;BME280;63906;55.686;37.532;2023-02-19T06:23:35;97742.97;;;-6.03;73.80
75312;BME280;63906;55.686;37.532;2023-02-19T06:28:37;97703.63;;;-6.02;73.26
75312;BME280;63906;55.686;37.532;2023-02-19T06:33:38;97730.72;;;-5.70;74.00
75312;BME280;63906;55.686;37.532;2023-02-19T06:38:39;97728.16;;;-5.70;71.48
75312;BME280;63906;55.686;37.532;2023-02-19T06:43:40;97718.53;;;-5.29;72.77
75312;BME280;63906;55.686;37.532;2023-02-19T06:48:42;97708.19;;;-5.57;70.02
75312;BME280;63906;55.686;37.532;2023-02-19T06:53:44;97700.91;;;-5.52;71.83
75312;BME280;63906;55.686;37.532;2023-02-19T06:58:44;97694.16;;;-5.72;70.71
75312;BME280;63906;55.686;37.532;2023-02-19T07:03:45;97658.44;;;-6.03;69.97
75312;BME280;63906;55.686;37.532;2023-02-19T07:08:45;97696.31;;;-5.58;70.40
75312;BME280;63906;55.686;37.532;2023-02-19T07:13:46;97676.16;;;-5.24;70.83
75312;BME280;63906;55.686;37.532;2023-02-19T07:18:47;97662.63;;;-5.16;71.24
75312;BME280;63906;55.686;37.532;2023-02-19T07:23:47;97659.78;;;-5.70;68.95
75312;BME280;63906;55.686;37.532;2023-02-19T07:28:49;97676.09;;;-5.04;72.72
75312;BME280;63906;55.686;37.532;2023-02-19T07:33:50;97655.50;;;-5.22;70.91
75312;BME280;63906;55.686;37.532;2023-02-19T07:38:55;97679.88;;;-5.46;70.42
75312;BME280;63906;55.686;37.532;2023-02-19T07:43:56;97643.28;;;-5.48;72.24
75312;BME280;63906;55.686;37.532;2023-02-19T07:48:58;97647.63;;;-5.01;71.98
75312;BME280;63906;55.686;37.532;2023-02-19T07:53:59;97633.78;;;-5.18;71.36
75312;BME280;63906;55.686;37.532;2023-02-19T07:59:00;97662.72;;;-4.98;69.63
75312;BME280;63906;55.686;37.532;2023-02-19T08:04:00;97621.19;;;-5.02;68.71
75312;BME280;63906;55.686;37.532;2023-02-19T08:09:01;97649.94;;;-5.08;70.43
75312;BME280;63906;55.686;37.532;2023-02-19T08:14:02;97638.44;;;-5.04;71.32
75312;BME280;63906;55.686;37.532;2023-02-19T08:19:03;97649.06;;;-4.89;69.99
75312;BME280;63906;55.686;37.532;2023-02-19T08:24:04;97622.66;;;-4.72;68.65
75312;BME280;63906;55.686;37.532;2023-02-19T08:29:05;97639.22;;;-4.39;70.38
75312;BME280;63906;55.686;37.532;2023-02-19T08:34:06;97641.13;;;-4.41;68.85
75312;BME280;63906;55.686;37.532;2023-02-19T08:39:06;97630.03;;;-4.41;70.44
75312;BME280;63906;55.686;37.532;2023-02-19T08:44:07;97607.28;;;-4.54;71.02
75312;BME280;63906;55.686;37.532;2023-02-19T08:49:07;97606.25;;;-4.89;68.93
75312;BME280;63906;55.686;37.532;2023-02-19T08:54:08;97625.44;;;-4.38;70.67
75312;BME280;63906;55.686;37.532;2023-02-19T08:59:09;97604.59;;;-4.35;69.87
75312;BME280;63906;55.686;37.532;2023-02-19T09:04:11;97615.22;;;-4.29;67.01
75312;BME280;63906;55.686;37.532;2023-02-19T09:09:12;97616.63;;;-4.17;68.38
75312;BME280;63906;55.686;37.532;2023-02-19T09:14:12;97608.53;;;-4.58;67.71
75312;BME280;63906;55.686;37.532;2023-02-19T09:19:13;97614.28;;;-4.46;67.77
75312;BME280;63906;55.686;37.532;2023-02-19T09:24:13;97586.75;;;-4.54;69.64
75312;BME280;63906;55.686;37.532;2023-02-19T09:29:14;97558.13;;;-4.77;67.75
75312;BME280;63906;55.686;37.532;2023-02-19T09:34:15;97588.00;;;-4.22;67.73
75312;BME280;63906;55.686;37.532;2023-02-19T09:39:15;97587.78;;;-4.47;68.32
75312;BME280;63906;55.686;37.532;2023-02-19T09:44:33;97587.63;;;-4.63;67.04
75312;BME280;63906;55.686;37.532;2023-02-19T09:49:39;97590.28;;;-4.37;69.52
75312;BME280;63906;55.686;37.532;2023-02-19T09:54:41;97587.13;;;-4.49;68.33
75312;BME280;63906;55.686;37.532;2023-02-19T10:00:05;97523.50;;;-4.55;67.97
75312;BME280;63906;55.686;37.532;2023-02-19T10:05:11;97558.88;;;-4.13;68.81
75312;BME280;63906;55.686;37.532;2023-02-19T10:15:19;97573.13;;;-4.37;68.42
75312;BME280;63906;55.686;37.532;2023-02-19T10:20:23;97558.81;;;-4.21;67.30
75312;BME280;63906;55.686;37.532;2023-02-19T10:25:27;97568.34;;;-3.70;68.06
75312;BME280;63906;55.686;37.532;2023-02-19T10:30:31;97567.16;;;-4.01;67.26
75312;BME280;63906;55.686;37.532;2023-02-19T10:35:35;97570.56;;;-3.49;69.28
75312;BME280;63906;55.686;37.532;2023-02-19T10:40:43;97544.66;;;-3.82;69.47
75312;BME280;63906;55.686;37.532;2023-02-19T10:45:47;97544.38;;;-4.40;66.23
75312;BME280;63906;55.686;37.532;2023-02-19T10:50:54;97545.50;;;-4.17;67.87
75312;BME280;63906;55.686;37.532;2023-02-19T10:56:28;97553.69;;;-3.77;66.75
75312;BME280;63906;55.686;37.532;2023-02-19T11:01:32;97553.97;;;-3.55;65.45
75312;BME280;63906;55.686;37.532;2023-02-19T11:06:33;97546.75;;;-2.91;65.78
75312;BME280;63906;55.686;37.532;2023-02-19T11:11:36;97545.56;;;-2.54;62.33
75312;BME280;63906;55.686;37.532;2023-02-19T11:16:38;97546.56;;;-2.23;62.46
75312;BME280;63906;55.686;37.532;2023-02-19T11:21:39;97533.81;;;-2.40;64.80
75312;BME280;63906;55.686;37.532;2023-02-19T11:26:40;97532.38;;;-2.27;66.93
75312;BME280;63906;55.686;37.532;2023-02-19T11:31:40;97534.28;;;-2.37;65.60
75312;BME280;63906;55.686;37.532;2023-02-19T11:36:41;97524.41;;;-2.74;62.43
75312;BME280;63906;55.686;37.532;2023-02-19T11:42:11;97509.84;;;-3.42;62.23
75312;BME280;63906;55.686;37.532;2023-02-19T12:03:25;97534.03;;;-3.27;63.65
75312;BME280;63906;55.686;37.532;2023-02-19T12:30:01;97524.94;;;-3.99;66.39
75312;BME280;63906;55.686;37.532;2023-02-19T12:46:12;97549.97;;;-4.01;66.71
75312;BME280;63906;55.686;37.532;2023-02-19T12:51:20;97537.38;;;-4.12;66.33
75312;BME280;63906;55.686;37.532;2023-02-19T12:56:26;97511.22;;;-3.90;68.64
75312;BME280;63906;55.686;37.532;2023-02-19T13:01:32;97541.72;;;-4.30;66.00
75312;BME280;63906;55.686;37.532;2023-02-19T13:06:45;97542.78;;;-3.97;67.23
75312;BME280;63906;55.686;37.532;2023-02-19T13:11:54;97514.00;;;-4.63;67.70
75312;BME280;63906;55.686;37.532;2023-02-19T13:17:13;97554.56;;;-4.30;67.87
75312;BME280;63906;55.686;37.532;2023-02-19T13:22:23;97539.28;;;-4.50;68.69
75312;BME280;63906;55.686;37.532;2023-02-19T13:33:05;97544.00;;;-4.27;69.54
75312;BME280;63906;55.686;37.532;2023-02-19T13:38:13;97497.31;;;-4.94;69.00
75312;BME280;63906;55.686;37.532;2023-02-19T13:43:27;97528.97;;;-4.58;70.29
75312;BME280;63906;55.686;37.532;2023-02-19T13:48:34;97534.94;;;-4.67;70.42
75312;BME280;63906;55.686;37.532;2023-02-19T13:58:52;97537.75;;;-4.43;70.12
75312;BME280;63906;55.686;37.532;2023-02-19T14:04:06;97518.16;;;-4.44;68.97
75312;BME280;63906;55.686;37.532;2023-02-19T14:14:54;97490.59;;;-4.77;70.13
75312;BME280;63906;55.686;37.532;2023-02-19T14:30:23;97515.38;;;-4.68;71.88
75312;BME280;63906;55.686;37.532;2023-02-19T14:35:29;97439.31;;;-5.23;70.77
75312;BME280;63906;55.686;37.532;2023-02-19T14:40:38;97511.41;;;-4.80;71.06
75312;BME280;63906;55.686;37.532;2023-02-19T14:46:06;97498.31;;;-4.77;71.92
75312;BME280;63906;55.686;37.532;2023-02-19T14:51:07;97494.16;;;-5.06;72.04
75312;BME280;63906;55.686;37.532;2023-02-19T14:56:22;97497.31;;;-4.94;71.75
75312;BME280;63906;55.686;37.532;2023-02-19T15:01:27;97484.03;;;-5.07;72.98
75312;BME280;63906;55.686;37.532;2023-02-19T15:06:28;97503.56;;;-5.24;72.03
75312;BME280;63906;55.686;37.532;2023-02-19T15:11:31;97482.00;;;-5.59;72.14
75312;BME280;63906;55.686;37.532;2023-02-19T15:16:33;97501.97;;;-5.35;72.11
75312;BME280;63906;55.686;37.532;2023-02-19T15:21:38;97503.31;;;-5.31;71.42
75312;BME280;63906;55.686;37.532;2023-02-19T15:26:47;97489.63;;;-5.39;71.65
75312;BME280;63906;55.686;37.532;2023-02-19T15:31:57;97488.72;;;-5.21;72.11
75312;BME280;63906;55.686;37.532;2023-02-19T15:37:04;97463.75;;;-5.28;71.84
75312;BME280;63906;55.686;37.532;2023-02-19T15:42:07;97480.28;;;-5.13;71.53
75312;BME280;63906;55.686;37.532;2023-02-19T15:47:33;97481.09;;;-5.12;72.13
75312;BME280;63906;55.686;37.532;2023-02-19T15:52:44;97473.81;;;-5.17;72.53
75312;BME280;63906;55.686;37.532;2023-02-19T16:03:04;97471.84;;;-5.23;71.11
75312;BME280;63906;55.686;37.532;2023-02-19T16:13:22;97439.38;;;-5.32;71.34
75312;BME280;63906;55.686;37.532;2023-02-19T16:18:23;97439.75;;;-5.09;72.63
75312;BME280;63906;55.686;37.532;2023-02-19T16:23:24;97449.44;;;-5.21;70.66
75312;BME280;63906;55.686;37.532;2023-02-19T16:28:26;97466.50;;;-5.12;71.16
75312;BME280;63906;55.686;37.532;2023-02-19T16:38:39;97457.97;;;-5.03;71.12
75312;BME280;63906;55.686;37.532;2023-02-19T16:43:41;97456.69;;;-4.99;70.50
75312;BME280;63906;55.686;37.532;2023-02-19T16:48:42;97462.19;;;-5.11;71.82
75312;BME280;63906;55.686;37.532;2023-02-19T16:53:43;97472.69;;;-5.05;71.41
75312;BME280;63906;55.686;37.532;2023-02-19T16:58:43;97459.59;;;-5.29;72.15
75312;BME280;63906;55.686;37.532;2023-02-19T17:03:47;97446.31;;;-5.43;71.80
75312;BME280;63906;55.686;37.532;2023-02-19T17:08:48;97441.66;;;-5.57;71.60
75312;BME280;63906;55.686;37.532;2023-02-19T17:13:48;97458.63;;;-5.28;73.28
75312;BME280;63906;55.686;37.532;2023-02-19T17:18:50;97444.63;;;-5.06;73.50
75312;BME280;63906;55.686;37.532;2023-02-19T17:23:51;97422.84;;;-5.20;72.16
75312;BME280;63906;55.686;37.532;2023-02-19T17:28:58;97443.28;;;-5.10;72.55
75312;BME280;63906;55.686;37.532;2023-02-19T17:34:00;97435.09;;;-5.14;72.81
75312;BME280;63906;55.686;37.532;2023-02-19T17:39:02;97397.78;;;-5.26;71.80
75312;BME280;63906;55.686;37.532;2023-02-19T17:44:03;97439.66;;;-4.90;72.25
75312;BME280;63906;55.686;37.532;2023-02-19T17:49:03;97444.31;;;-4.85;72.13
75312;BME280;63906;55.686;37.532;2023-02-19T17:54:04;97420.06;;;-5.27;72.54
75312;BME280;63906;55.686;37.532;2023-02-19T17:59:05;97430.34;;;-5.09;72.98
75312;BME280;63906;55.686;37.532;2023-02-19T18:04:05;97427.09;;;-5.11;72.63
75312;BME280;63906;55.686;37.532;2023-02-19T18:09:06;97439.72;;;-5.00;72.81
75312;BME280;63906;55.686;37.532;2023-02-19T18:14:06;97393.31;;;-5.24;72.83
75312;BME280;63906;55.686;37.532;2023-02-19T18:19:07;97413.31;;;-5.10;72.87
75312;BME280;63906;55.686;37.532;2023-02-19T18:24:07;97427.53;;;-4.98;71.87
75312;BME280;63906;55.686;37.532;2023-02-19T18:29:08;97413.63;;;-5.13;72.17
75312;BME280;63906;55.686;37.532;2023-02-19T18:34:17;97398.81;;;-5.19;72.06
75312;BME280;63906;55.686;37.532;2023-02-19T18:39:18;97409.56;;;-5.16;72.94
75312;BME280;63906;55.686;37.532;2023-02-19T18:44:20;97438.09;;;-5.01;72.64
75312;BME280;63906;55.686;37.532;2023-02-19T18:49:21;97421.09;;;-5.02;72.76
75312;BME280;63906;55.686;37.532;2023-02-19T18:54:24;97428.59;;;-4.91;71.84
75312;BME280;63906;55.686;37.532;2023-02-19T18:59:25;97402.78;;;-5.07;72.43
75312;BME280;63906;55.686;37.532;2023-02-19T19:04:26;97402.03;;;-5.17;73.22
75312;BME280;63906;55.686;37.532;2023-02-19T19:09:29;97402.59;;;-5.23;72.92
75312;BME280;63906;55.686;37.532;2023-02-19T19:14:29;97403.03;;;-5.10;72.98
75312;BME280;63906;55.686;37.532;2023-02-19T19:19:30;97396.53;;;-5.04;72.86
75312;BME280;63906;55.686;37.532;2023-02-19T19:24:30;97407.97;;;-4.81;73.52
75312;BME280;63906;55.686;37.532;2023-02-19T19:29:31;97398.66;;;-5.00;73.25
75312;BME280;63906;55.686;37.532;2023-02-19T19:34:31;97395.50;;;-5.11;72.19
75312;BME280;63906;55.686;37.532;2023-02-19T19:39:32;97386.91;;;-4.84;73.39
75312;BME280;63906;55.686;37.532;2023-02-19T19:44:33;97391.03;;;-4.74;73.48
75312;BME280;63906;55.686;37.532;2023-02-19T19:49:33;97402.41;;;-4.94;73.21
75312;BME280;63906;55.686;37.532;2023-02-19T19:54:34;97397.69;;;-4.81;73.18
75312;BME280;63906;55.686;37.532;2023-02-19T19:59:34;97417.56;;;-4.65;73.71
75312;BME280;63906;55.686;37.532;2023-02-19T20:04:36;97414.25;;;-4.57;74.38
75312;BME280;63906;55.686;37.532;2023-02-19T20:09:36;97392.19;;;-4.86;73.44
75312;BME280;63906;55.686;37.532;2023-02-19T20:14:37;97396.53;;;-4.87;73.64
75312;BME280;63906;55.686;37.532;2023-02-19T20:19:38;97401.00;;;-4.89;73.10
75312;BME280;63906;55.686;37.532;2023-02-19T20:24:38;97374.75;;;-4.82;73.83
75312;BME280;63906;55.686;37.532;2023-02-19T20:29:39;97358.94;;;-4.96;73.23
75312;BME280;63906;55.686;37.532;2023-02-19T20:34:40;97344.16;;;-5.37;73.57
75312;BME280;63906;55.686;37.532;2023-02-19T20:39:40;97397.13;;;-4.93;74.08
75312;BME280;63906;55.686;37.532;2023-02-19T20:44:41;97396.72;;;-4.62;73.79
75312;BME280;63906;55.686;37.532;2023-02-19T20:49:45;97374.03;;;-4.93;73.33
75312;BME280;63906;55.686;37.532;2023-02-19T20:54:46;97393.31;;;-4.89;73.46
75312;BME280;63906;55.686;37.532;2023-02-19T20:59:46;97408.38;;;-4.68;73.91
75312;BME280;63906;55.686;37.532;2023-02-19T21:04:47;97385.88;;;-4.74;73.81
75312;BME280;63906;55.686;37.532;2023-02-19T21:09:48;97395.13;;;-4.99;73.37
75312;BME280;63906;55.686;37.532;2023-02-19T21:14:48;97387.66;;;-5.10;74.47
75312;BME280;63906;55.686;37.532;2023-02-19T21:19:49;97394.50;;;-4.83;74.06
75312;BME280;63906;55.686;37.532;2023-02-19T21:24:51;97402.75;;;-4.71;74.03
75312;BME280;63906;55.686;37.532;2023-02-19T21:29:53;97401.84;;;-4.62;73.13
75312;BME280;63906;55.686;37.532;2023-02-19T21:34:53;97392.19;;;-4.68;73.62
75312;BME280;63906;55.686;37.532;2023-02-19T21:39:54;97355.06;;;-5.00;72.93
75312;BME280;63906;55.686;37.532;2023-02-19T21:44:54;97378.13;;;-4.64;73.78
75312;BME280;63906;55.686;37.532;2023-02-19T21:49:55;97396.44;;;-4.59;73.21
75312;BME280;63906;55.686;37.532;2023-02-19T21:54:56;97404.47;;;-4.54;73.84
75312;BME280;63906;55.686;37.532;2023-02-19T21:59:57;97397.91;;;-4.74;73.27
75312;BME280;63906;55.686;37.532;2023-02-19T22:04:57;97358.03;;;-4.87;73.17
75312;BME280;63906;55.686;37.532;2023-02-19T22:09:58;97402.16;;;-4.65;73.85
75312;BME280;63906;55.686;37.532;2023-02-19T22:14:58;97398.41;;;-4.53;73.27
75312;BME280;63906;55.686;37.532;2023-02-19T22:19:59;97393.94;;;-4.51;73.29
75312;BME280;63906;55.686;37.532;2023-02-19T22:25:00;97380.59;;;-4.72;72.46
75312;BME280;63906;55.686;37.532;2023-02-19T22:30:00;97399.88;;;-4.50;73.43
75312;BME280;63906;55.686;37.532;2023-02-19T22:35:05;97389.66;;;-4.60;72.39
75312;BME280;63906;55.686;37.532;2023-02-19T22:40:15;97380.00;;;-4.66;73.47
75312;BME280;63906;55.686;37.532;2023-02-19T22:45:29;97387.69;;;-4.66;73.18
75312;BME280;63906;55.686;37.532;2023-02-19T22:50:29;97383.91;;;-4.62;74.80
75312;BME280;63906;55.686;37.532;2023-02-19T22:55:30;97388.28;;;-4.54;74.31
75312;BME280;63906;55.686;37.532;2023-02-19T23:00:38;97354.88;;;-4.80;74.65
75312;BME280;63906;55.686;37.532;2023-02-19T23:05:39;97326.56;;;-4.97;74.50
75312;BME280;63906;55.686;37.532;2023-02-19T23:10:39;97379.41;;;-4.60;74.05
75312;BME280;63906;55.686;37.532;2023-02-19T23:15:40;97386.25;;;-4.69;72.88
75312;BME280;63906;55.686;37.532;2023-02-19T23:20:45;97338.34;;;-5.04;73.61
75312;BME280;63906;55.686;37.532;2023-02-19T23:25:46;97353.81;;;-4.96;73.35
75312;BME280;63906;55.686;37.532;2023-02-19T23:30:47;97395.13;;;-4.81;73.15
75312;BME280;63906;55.686;37.532;2023-02-19T23:35:47;97397.50;;;-4.88;73.71
75312;BME280;63906;55.686;37.532;2023-02-19T23:40:48;97421.16;;;-4.58;74.48
75312;BME280;63906;55.686;37.532;2023-02-19T23:45:53;97403.78;;;-4.64;73.92
75312;BME280;63906;55.686;37.532;2023-02-19T23:50:56;97399.84;;;-4.76;73.97
75312;BME280;63906;55.686;37.532;2023-02-19T23:56:02;97417.34;;;-4.72;74.30
